createdAt,value
2022-11-29T00:01:41.047Z,102400.60
2022-11-29T00:04:09.646Z,102400.61
2022-11-29T00:06:38.066Z,102402.73
2022-11-29T00:09:09.110Z,102404.08
2022-11-29T00:11:57.202Z,102398.12
2022-11-29T00:14:27.170Z,102397.38
2022-11-29T00:16:59.446Z,102392.39
2022-11-29T00:19:28.074Z,102398.91
2022-11-29T00:21:56.036Z,102395.59
2022-11-29T00:24:24.173Z,102390.16
2022-11-29T00:26:52.125Z,102396.17
2022-11-29T00:29:20.534Z,102396.40
2022-11-29T00:31:48.615Z,102397.63
2022-11-29T00:34:16.725Z,102402.49
2022-11-29T00:36:44.783Z,102400.66
2022-11-29T00:39:13.244Z,102399.44
2022-11-29T00:41:41.343Z,102401.34
2022-11-29T00:44:13.915Z,102401.08
2022-11-29T00:46:45.065Z,102402.88
2022-11-29T00:49:13.220Z,102397.92
2022-11-29T00:51:41.401Z,102399.78
2022-11-29T00:54:09.720Z,102398.39
2022-11-29T00:56:37.826Z,102400.27
2022-11-29T00:59:05.908Z,102399.63
2022-11-29T01:01:33.935Z,102393.79
2022-11-29T01:04:02.769Z,102391.14
2022-11-29T01:06:30.830Z,102396.42
2022-11-29T01:08:58.858Z,102395.04
2022-11-29T01:11:28.113Z,102397.08
2022-11-29T01:14:01.778Z,102394.17
2022-11-29T01:16:31.956Z,102400.99
2022-11-29T01:19:01.692Z,102404.58
2022-11-29T01:21:29.895Z,102400.77
2022-11-29T01:23:57.926Z,102402.56
2022-11-29T01:26:28.954Z,102395.42
2022-11-29T01:28:58.112Z,102392.55
2022-11-29T01:31:30.518Z,102389.30
2022-11-29T01:34:01.605Z,102388.98
2022-11-29T01:36:30.218Z,102387.55
2022-11-29T01:39:03.508Z,102385.49
2022-11-29T01:41:34.038Z,102381.02
2022-11-29T01:44:14.085Z,102386.33
2022-11-29T01:46:45.097Z,102382.11
2022-11-29T01:49:21.540Z,102386.47
2022-11-29T01:52:13.119Z,102386.91
2022-11-29T01:54:43.823Z,102386.08
2022-11-29T01:57:13.175Z,102386.38
2022-11-29T01:59:47.996Z,102384.27
2022-11-29T02:02:21.066Z,102382.30
2022-11-29T02:04:49.926Z,102383.31
2022-11-29T02:07:18.119Z,102387.76
2022-11-29T02:09:46.165Z,102387.94
2022-11-29T02:12:26.217Z,102386.95
2022-11-29T02:15:35.631Z,102383.92
2022-11-29T02:18:11.877Z,102386.66
2022-11-29T02:21:01.445Z,102387.56
2022-11-29T02:23:45.435Z,102385.06
2022-11-29T02:26:40.548Z,102387.42
2022-11-29T02:29:20.641Z,102390.23
2022-11-29T02:32:16.063Z,102396.00
2022-11-29T02:35:13.071Z,102401.95
2022-11-29T02:38:11.265Z,102399.08
2022-11-29T02:40:57.199Z,102399.02
2022-11-29T02:43:52.621Z,102402.48
2022-11-29T02:46:47.507Z,102405.39
2022-11-29T02:49:42.578Z,102404.27
2022-11-29T02:52:49.613Z,102404.63
2022-11-29T02:55:55.250Z,102412.87
2022-11-29T02:58:37.066Z,102412.38
2022-11-29T03:01:20.284Z,102418.83
2022-11-29T03:04:35.951Z,102416.67
2022-11-29T03:07:25.632Z,102420.46
2022-11-29T03:10:00.884Z,102419.70
2022-11-29T03:12:47.998Z,102416.46
2022-11-29T03:15:25.130Z,102419.42
2022-11-29T03:18:17.482Z,102424.17
2022-11-29T03:21:18.725Z,102423.00
2022-11-29T03:23:57.602Z,102421.30
2022-11-29T03:27:06.641Z,102413.29
2022-11-29T03:29:47.028Z,102421.52
2022-11-29T03:32:28.262Z,102425.38
2022-11-29T03:35:02.516Z,102424.96
2022-11-29T03:37:51.849Z,102428.55
2022-11-29T03:40:25.351Z,102431.14
2022-11-29T03:42:56.859Z,102433.29
2022-11-29T03:45:32.230Z,102429.16
2022-11-29T03:48:08.140Z,102430.63
2022-11-29T03:50:44.313Z,102430.83
2022-11-29T03:53:23.008Z,102436.54
2022-11-29T03:56:23.210Z,102432.34
2022-11-29T03:59:21.338Z,102428.21
2022-11-29T04:01:54.736Z,102432.25
2022-11-29T04:04:50.707Z,102434.77
2022-11-29T04:07:34.726Z,102438.65
2022-11-29T04:10:25.672Z,102441.05
2022-11-29T04:13:15.244Z,102446.35
2022-11-29T04:16:03.157Z,102447.23
2022-11-29T04:18:51.712Z,102454.73
2022-11-29T04:21:45.043Z,102458.27
2022-11-29T04:24:31.462Z,102458.00
2022-11-29T04:27:02.349Z,102453.66
2022-11-29T04:29:51.613Z,102460.94
2022-11-29T04:32:41.387Z,102465.30
2022-11-29T04:35:22.854Z,102465.66
2022-11-29T04:38:28.462Z,102463.67
2022-11-29T04:41:24.219Z,102464.67
2022-11-29T04:44:09.421Z,102466.80
2022-11-29T04:47:11.238Z,102469.85
2022-11-29T04:50:00.558Z,102464.64
2022-11-29T04:52:28.655Z,102467.63
2022-11-29T04:55:31.107Z,102468.94
2022-11-29T04:58:17.834Z,102471.50
2022-11-29T05:00:57.396Z,102474.84
2022-11-29T05:03:33.402Z,102480.15
2022-11-29T05:06:39.818Z,102483.71
2022-11-29T05:09:38.335Z,102492.30
2022-11-29T05:12:23.441Z,102483.67
2022-11-29T05:15:24.498Z,102492.05
2022-11-29T05:18:26.809Z,102495.18
2022-11-29T05:21:11.443Z,102495.59
2022-11-29T05:23:51.240Z,102490.41
2022-11-29T05:26:38.439Z,102489.38
2022-11-29T05:29:12.996Z,102487.89
2022-11-29T05:31:56.792Z,102494.13
2022-11-29T05:35:03.959Z,102490.91
2022-11-29T05:37:44.945Z,102493.80
2022-11-29T05:40:31.378Z,102494.61
2022-11-29T05:43:05.040Z,102497.31
2022-11-29T05:45:48.381Z,102499.36
2022-11-29T05:48:33.046Z,102495.57
2022-11-29T05:51:20.027Z,102499.41
2022-11-29T05:54:18.632Z,102501.85
2022-11-29T05:57:15.546Z,102509.17
2022-11-29T05:59:47.453Z,102510.52
2022-11-29T06:02:21.263Z,102513.80
2022-11-29T06:05:15.683Z,102511.50
2022-11-29T06:07:56.696Z,102516.11
2022-11-29T06:10:32.917Z,102523.17
2022-11-29T06:13:01.003Z,102516.46
2022-11-29T06:15:56.957Z,102518.98
2022-11-29T06:18:36.997Z,102513.91
2022-11-29T06:21:34.662Z,102517.63
2022-11-29T06:24:25.542Z,102516.48
2022-11-29T06:27:22.528Z,102516.61
2022-11-29T06:29:59.572Z,102523.67
2022-11-29T06:32:42.548Z,102521.71
2022-11-29T06:35:29.002Z,102523.77
2022-11-29T06:37:58.633Z,102525.50
2022-11-29T06:40:26.935Z,102527.29
2022-11-29T06:42:54.922Z,102527.19
2022-11-29T06:45:23.339Z,102532.98
2022-11-29T06:48:10.026Z,102528.01
2022-11-29T06:50:55.979Z,102525.58
2022-11-29T06:53:30.574Z,102524.52
2022-11-29T06:56:04.759Z,102525.02
2022-11-29T06:59:14.582Z,102525.09
2022-11-29T07:02:00.153Z,102525.56
2022-11-29T07:04:50.124Z,102526.79
2022-11-29T07:07:20.502Z,102528.46
2022-11-29T07:09:53.292Z,102537.73
2022-11-29T07:12:21.707Z,102532.86
2022-11-29T07:14:50.075Z,102535.02
2022-11-29T07:17:36.095Z,102541.32
2022-11-29T07:20:22.486Z,102544.83
2022-11-29T07:22:59.212Z,102544.23
2022-11-29T07:25:35.732Z,102540.58
2022-11-29T07:28:24.922Z,102549.16
2022-11-29T07:30:55.786Z,102541.94
2022-11-29T07:33:40.326Z,102544.69
2022-11-29T07:36:29.892Z,102549.25
2022-11-29T07:39:38.032Z,102553.42
2022-11-29T07:42:29.391Z,102562.81
2022-11-29T07:45:12.399Z,102566.27
2022-11-29T07:47:40.421Z,102568.11
2022-11-29T07:50:08.783Z,102565.78
2022-11-29T07:52:36.801Z,102570.11
2022-11-29T07:55:05.843Z,102572.45
2022-11-29T07:57:33.938Z,102573.52
2022-11-29T08:00:02.080Z,102567.40
2022-11-29T08:02:39.539Z,102566.96
2022-11-29T08:05:08.823Z,102565.52
2022-11-29T08:07:40.991Z,102562.36
2022-11-29T08:10:12.662Z,102561.80
2022-11-29T08:12:51.172Z,102557.77
2022-11-29T08:15:20.839Z,102560.68
2022-11-29T08:17:49.714Z,102561.55
2022-11-29T08:20:17.832Z,102553.00
2022-11-29T08:22:45.870Z,102552.35
2022-11-29T08:25:13.935Z,102549.88
2022-11-29T08:27:42.033Z,102549.20
2022-11-29T08:30:10.486Z,102556.34
2022-11-29T08:32:38.762Z,102551.45
2022-11-29T08:35:06.975Z,102551.59
2022-11-29T08:37:35.132Z,102551.12
2022-11-29T08:40:04.709Z,102552.63
2022-11-29T08:42:32.704Z,102551.71
2022-11-29T08:45:00.697Z,102557.27
2022-11-29T08:47:37.404Z,102551.28
2022-11-29T08:50:17.875Z,102552.98
2022-11-29T08:53:06.934Z,102550.11
2022-11-29T08:55:40.712Z,102552.04
2022-11-29T08:58:12.860Z,102549.36
2022-11-29T09:00:43.128Z,102549.19
2022-11-29T09:03:29.519Z,102543.41
2022-11-29T09:05:57.762Z,102540.73
2022-11-29T09:08:25.752Z,102541.90
2022-11-29T09:10:55.032Z,102536.61
2022-11-29T09:13:23.013Z,102541.61
2022-11-29T09:15:51.027Z,102539.73
2022-11-29T09:18:19.128Z,102536.83
2022-11-29T09:20:47.139Z,102542.81
2022-11-29T09:23:15.081Z,102541.34
2022-11-29T09:25:48.499Z,102540.13
2022-11-29T09:28:16.623Z,102544.34
2022-11-29T09:30:44.658Z,102542.11
2022-11-29T09:33:12.665Z,102541.89
2022-11-29T09:35:40.766Z,102544.09
2022-11-29T09:38:12.478Z,102541.66
2022-11-29T09:41:06.904Z,102541.02
2022-11-29T09:43:46.703Z,102541.38
2022-11-29T09:46:58.422Z,102543.69
2022-11-29T09:49:44.926Z,102542.95
2022-11-29T09:52:31.373Z,102541.94
2022-11-29T09:55:20.736Z,102539.34
2022-11-29T09:57:50.422Z,102541.65
2022-11-29T10:00:22.568Z,102542.08
2022-11-29T10:02:57.143Z,102541.02
2022-11-29T10:05:30.201Z,102543.94
2022-11-29T10:08:07.698Z,102543.39
2022-11-29T10:10:45.766Z,102547.38
2022-11-29T10:13:21.384Z,102543.13
2022-11-29T10:15:54.865Z,102549.81
2022-11-29T10:18:31.347Z,102547.44
2022-11-29T10:21:06.574Z,102548.38
2022-11-29T10:23:44.172Z,102549.59
2022-11-29T10:26:13.352Z,102548.60
2022-11-29T10:28:48.725Z,102547.57
2022-11-29T10:31:21.325Z,102550.23
2022-11-29T10:33:50.105Z,102545.02
2022-11-29T10:36:33.325Z,102543.70
2022-11-29T10:39:08.835Z,102546.98
2022-11-29T10:41:41.200Z,102552.56
2022-11-29T10:44:13.301Z,102545.95
2022-11-29T10:46:41.587Z,102550.10
2022-11-29T10:49:17.184Z,102551.64
2022-11-29T10:51:46.467Z,102554.86
2022-11-29T10:54:33.318Z,102550.95
2022-11-29T10:57:02.445Z,102553.05
2022-11-29T10:59:33.078Z,102561.05
2022-11-29T11:02:02.117Z,102557.70
2022-11-29T11:04:44.628Z,102555.90
2022-11-29T11:07:42.006Z,102556.49
2022-11-29T11:10:27.563Z,102561.59
2022-11-29T11:13:04.735Z,102564.20
2022-11-29T11:15:33.127Z,102562.35
2022-11-29T11:18:05.098Z,102569.46
2022-11-29T11:20:36.586Z,102565.27
2022-11-29T11:23:19.847Z,102572.32
2022-11-29T11:25:50.836Z,102567.86
2022-11-29T11:28:33.741Z,102569.14
2022-11-29T11:31:08.371Z,102569.09
2022-11-29T11:33:44.428Z,102567.10
2022-11-29T11:36:16.238Z,102566.78
2022-11-29T11:38:55.690Z,102565.05
2022-11-29T11:41:53.867Z,102565.27
2022-11-29T11:44:47.581Z,102564.41
2022-11-29T11:47:24.510Z,102565.05
2022-11-29T11:50:04.391Z,102565.11
2022-11-29T11:52:54.950Z,102566.20
2022-11-29T11:55:34.824Z,102566.13
2022-11-29T11:58:16.212Z,102567.30
2022-11-29T12:01:03.904Z,102569.07
2022-11-29T12:03:53.923Z,102570.73
2022-11-29T12:06:46.536Z,102576.92
2022-11-29T12:09:25.301Z,102580.65
2022-11-29T12:11:56.725Z,102577.63
2022-11-29T12:14:32.908Z,102579.55
2022-11-29T12:17:32.971Z,102585.76
2022-11-29T12:20:19.338Z,102580.15
2022-11-29T12:22:59.012Z,102582.02
2022-11-29T12:25:35.126Z,102578.08
2022-11-29T12:28:04.012Z,102580.91
2022-11-29T12:30:32.861Z,102587.20
2022-11-29T12:33:22.494Z,102591.45
2022-11-29T12:36:06.765Z,102591.77
2022-11-29T12:38:48.042Z,102589.80
2022-11-29T12:41:22.121Z,102595.83
2022-11-29T12:44:08.203Z,102598.77
2022-11-29T12:46:38.421Z,102601.40
2022-11-29T12:49:13.076Z,102603.67
2022-11-29T12:51:53.144Z,102601.73
2022-11-29T12:54:29.835Z,102600.89
2022-11-29T12:57:28.082Z,102604.14
2022-11-29T13:00:02.212Z,102604.61
2022-11-29T13:02:50.547Z,102601.13
2022-11-29T13:05:28.023Z,102604.09
2022-11-29T13:07:56.034Z,102600.68
2022-11-29T13:10:55.946Z,102603.25
2022-11-29T13:13:50.048Z,102611.24
2022-11-29T13:16:46.300Z,102615.27
2022-11-29T13:19:29.333Z,102614.09
2022-11-29T13:22:09.276Z,102616.67
2022-11-29T13:24:46.513Z,102619.98
2022-11-29T13:27:28.781Z,102621.71
2022-11-29T13:30:02.173Z,102624.29
2022-11-29T13:32:39.110Z,102624.36
2022-11-29T13:35:38.070Z,102627.70
2022-11-29T13:38:37.207Z,102623.76
2022-11-29T13:41:15.357Z,102628.74
2022-11-29T13:43:55.501Z,102625.18
2022-11-29T13:46:32.607Z,102629.99
2022-11-29T13:49:00.752Z,102626.69
2022-11-29T13:51:38.803Z,102632.35
2022-11-29T13:54:27.965Z,102629.08
2022-11-29T13:57:09.986Z,102633.04
2022-11-29T13:59:47.122Z,102635.29
2022-11-29T14:02:30.512Z,102636.15
2022-11-29T14:04:59.072Z,102637.36
2022-11-29T14:07:27.090Z,102639.89
2022-11-29T14:10:08.443Z,102645.82
2022-11-29T14:12:46.129Z,102646.41
2022-11-29T14:15:29.326Z,102646.27
2022-11-29T14:18:02.401Z,102652.69
2022-11-29T14:20:30.741Z,102653.17
2022-11-29T14:23:04.590Z,102654.47
2022-11-29T14:25:51.327Z,102655.48
2022-11-29T14:28:23.235Z,102658.35
2022-11-29T14:30:54.521Z,102654.74
2022-11-29T14:33:44.681Z,102653.84
2022-11-29T14:36:17.697Z,102654.40
2022-11-29T14:38:51.784Z,102649.42
2022-11-29T14:41:41.443Z,102655.75
2022-11-29T14:44:20.297Z,102657.84
2022-11-29T14:46:59.447Z,102659.56
2022-11-29T14:49:28.930Z,102659.68
2022-11-29T14:52:15.224Z,102661.42
2022-11-29T14:54:57.089Z,102665.48
2022-11-29T14:57:49.884Z,102659.63
2022-11-29T15:00:23.614Z,102666.33
2022-11-29T15:03:00.558Z,102667.17
2022-11-29T15:05:34.470Z,102664.65
2022-11-29T15:08:21.033Z,102667.39
2022-11-29T15:10:57.461Z,102668.66
2022-11-29T15:13:32.098Z,102669.31
2022-11-29T15:16:31.285Z,102667.29
2022-11-29T15:19:36.905Z,102668.69
2022-11-29T15:22:15.889Z,102670.31
2022-11-29T15:24:57.403Z,102664.43
2022-11-29T15:27:25.889Z,102666.58
2022-11-29T15:29:54.046Z,102663.05
2022-11-29T15:32:32.624Z,102661.44
2022-11-29T15:35:01.308Z,102664.08
2022-11-29T15:37:32.060Z,102670.67
2022-11-29T15:40:04.829Z,102670.06
2022-11-29T15:43:14.138Z,102670.09
2022-11-29T15:45:48.766Z,102675.46
2022-11-29T15:48:23.805Z,102677.34
2022-11-29T15:50:57.379Z,102676.73
2022-11-29T15:53:36.586Z,102677.31
2022-11-29T15:56:12.907Z,102677.06
2022-11-29T15:58:41.372Z,102679.95
2022-11-29T16:01:21.873Z,102681.13
2022-11-29T16:03:54.068Z,102682.89
2022-11-29T16:06:54.695Z,102680.77
2022-11-29T16:09:51.862Z,102683.05
2022-11-29T16:12:19.857Z,102685.63
2022-11-29T16:14:58.715Z,102687.02
2022-11-29T16:17:33.892Z,102688.22
2022-11-29T16:20:23.694Z,102688.11
2022-11-29T16:23:13.499Z,102690.81
2022-11-29T16:25:52.892Z,102695.00
2022-11-29T16:28:20.951Z,102689.20
2022-11-29T16:30:49.014Z,102691.65
2022-11-29T16:33:21.613Z,102694.08
2022-11-29T16:35:50.567Z,102696.98
2022-11-29T16:38:21.765Z,102702.50
2022-11-29T16:41:08.653Z,102702.77
2022-11-29T16:43:50.815Z,102706.02
2022-11-29T16:46:21.562Z,102706.91
2022-11-29T16:48:50.886Z,102710.17
2022-11-29T16:51:23.682Z,102715.39
2022-11-29T16:53:53.905Z,102718.33
2022-11-29T16:56:28.129Z,102718.58
2022-11-29T16:59:24.952Z,102718.98
2022-11-29T17:01:49.356Z,102720.02
2022-11-29T17:04:24.326Z,102722.64
2022-11-29T17:33:29.173Z,102753.17
2022-11-29T17:35:55.713Z,102749.02
2022-11-29T17:38:22.309Z,102748.51
2022-11-29T17:40:48.904Z,102746.56
2022-11-29T17:43:15.619Z,102746.13
2022-11-29T17:45:42.349Z,102744.14
2022-11-29T17:48:09.022Z,102747.37
2022-11-29T17:50:37.385Z,102745.91
2022-11-29T17:53:04.807Z,102746.07
2022-11-29T17:55:31.463Z,102743.56
2022-11-29T17:57:58.199Z,102750.74
2022-11-29T18:00:24.922Z,102752.94
2022-11-29T18:02:51.619Z,102752.10
2022-11-29T18:05:18.315Z,102754.67
2022-11-29T18:07:57.336Z,102753.61
2022-11-29T18:10:28.122Z,102751.27
2022-11-29T18:12:54.817Z,102752.93
2022-11-29T18:15:21.504Z,102750.69
2022-11-29T18:17:48.293Z,102751.41
2022-11-29T18:20:15.028Z,102752.87
2022-11-29T18:22:41.777Z,102751.50
2022-11-29T18:25:37.046Z,102752.16
2022-11-29T18:27:55.397Z,102752.71
2022-11-29T18:30:22.061Z,102754.39
2022-11-29T18:32:48.701Z,102756.27
2022-11-29T18:35:15.436Z,102758.91
2022-11-29T18:38:13.401Z,102758.58
2022-11-29T18:40:28.681Z,102758.55
2022-11-29T18:42:55.419Z,102761.45
2022-11-29T18:45:22.050Z,102765.73
2022-11-29T18:47:48.692Z,102758.84
2022-11-29T18:50:15.266Z,102758.98
2022-11-29T18:52:41.870Z,102765.40
2022-11-29T18:55:08.836Z,102767.41
2022-11-29T18:57:35.453Z,102768.91
2022-11-29T19:00:03.296Z,102767.98
2022-11-29T19:02:30.081Z,102768.29
2022-11-29T19:04:56.691Z,102772.26
2022-11-29T19:07:23.374Z,102772.20
2022-11-29T19:09:50.079Z,102774.10
2022-11-29T19:12:16.701Z,102778.29
2022-11-29T19:14:49.416Z,102779.66
2022-11-29T19:17:17.036Z,102781.16
2022-11-29T19:19:43.996Z,102780.48
2022-11-29T19:22:10.940Z,102777.02
2022-11-29T19:24:37.551Z,102780.08
2022-11-29T19:27:04.197Z,102777.72
2022-11-29T19:29:33.956Z,102780.68
2022-11-29T19:32:03.922Z,102780.80
2022-11-29T19:34:30.458Z,102780.11
2022-11-29T19:36:56.995Z,102783.45
2022-11-29T19:39:25.470Z,102782.06
2022-11-29T19:41:52.374Z,102787.83
2022-11-29T19:44:19.064Z,102785.35
2022-11-29T19:46:47.891Z,102788.14
2022-11-29T19:49:14.573Z,102786.59
2022-11-29T19:51:41.498Z,102784.54
2022-11-29T19:54:09.313Z,102785.30
2022-11-29T19:56:36.823Z,102782.92
2022-11-29T19:59:05.027Z,102784.30
2022-11-29T20:01:40.302Z,102787.43
2022-11-29T20:04:09.467Z,102785.37
2022-11-29T20:06:36.494Z,102785.45
2022-11-29T20:09:04.092Z,102783.90
2022-11-29T20:11:30.795Z,102781.77
2022-11-29T20:13:59.581Z,102778.77
2022-11-29T20:16:27.689Z,102776.39
2022-11-29T20:18:55.338Z,102780.98
2022-11-29T20:21:28.338Z,102782.48
2022-11-29T20:23:56.986Z,102777.05
2022-11-29T20:26:24.584Z,102784.30
2022-11-29T20:28:51.612Z,102781.48
2022-11-29T20:31:21.115Z,102781.34
2022-11-29T20:33:49.473Z,102784.55
2022-11-29T20:36:43.862Z,102788.86
2022-11-29T20:39:30.257Z,102794.65
2022-11-29T20:42:18.751Z,102790.79
2022-11-29T20:44:57.535Z,102791.90
2022-11-29T20:47:26.460Z,102789.12
2022-11-29T20:49:53.851Z,102792.91
2022-11-29T20:52:29.899Z,102795.55
2022-11-29T20:54:56.569Z,102796.01
2022-11-29T20:57:23.185Z,102795.30
2022-11-29T20:59:49.844Z,102797.55
2022-11-29T21:02:16.489Z,102798.60
2022-11-29T21:04:43.286Z,102798.86
2022-11-29T21:07:10.183Z,102800.29
2022-11-29T21:09:36.726Z,102803.23
2022-11-29T21:12:04.179Z,102802.50
2022-11-29T21:14:31.715Z,102805.33
2022-11-29T21:16:59.128Z,102806.01
2022-11-29T21:19:26.161Z,102807.96
2022-11-29T21:22:10.310Z,102808.76
2022-11-29T21:24:52.428Z,102805.91
2022-11-29T21:27:33.125Z,102807.96
2022-11-29T21:30:05.237Z,102807.25
2022-11-29T21:32:32.996Z,102808.71
2022-11-29T21:34:59.587Z,102811.55
2022-11-29T21:37:29.711Z,102809.85
2022-11-29T21:39:57.213Z,102809.81
2022-11-29T21:42:24.029Z,102809.69
2022-11-29T21:44:50.641Z,102813.05
2022-11-29T21:47:17.278Z,102815.27
2022-11-29T21:49:44.542Z,102811.91
2022-11-29T21:52:11.166Z,102810.55
2022-11-29T21:54:38.834Z,102810.88
2022-11-29T21:57:05.567Z,102805.25
2022-11-29T21:59:32.157Z,102812.04
2022-11-29T22:01:58.916Z,102815.95
2022-11-29T22:04:25.930Z,102816.36
2022-11-29T22:06:52.629Z,102813.95
2022-11-29T22:09:19.203Z,102813.89
2022-11-29T22:11:46.151Z,102810.98
2022-11-29T22:14:18.230Z,102815.79
2022-11-29T22:16:59.265Z,102815.29
2022-11-29T22:19:30.487Z,102820.91
2022-11-29T22:21:59.730Z,102818.40
2022-11-29T22:24:29.826Z,102822.96
2022-11-29T22:26:56.712Z,102817.10
2022-11-29T22:29:23.997Z,102825.34
2022-11-29T22:31:52.887Z,102826.39
2022-11-29T22:34:20.602Z,102827.95
2022-11-29T22:36:47.271Z,102825.31
2022-11-29T22:39:14.335Z,102824.08
2022-11-29T22:41:41.693Z,102832.36
2022-11-29T22:44:08.435Z,102826.52
2022-11-29T22:46:38.830Z,102825.97
2022-11-29T22:49:05.590Z,102826.38
2022-11-29T22:51:34.686Z,102826.73
2022-11-29T22:54:07.161Z,102830.62
2022-11-29T22:56:41.056Z,102827.05
2022-11-29T22:59:08.421Z,102827.86
2022-11-29T23:01:37.518Z,102824.98
2022-11-29T23:04:06.599Z,102827.14
2022-11-29T23:06:34.889Z,102827.17
2022-11-29T23:09:19.256Z,102823.33
2022-11-29T23:11:51.199Z,102823.23
2022-11-29T23:14:19.118Z,102823.76
2022-11-29T23:16:46.067Z,102830.73
2022-11-29T23:19:16.038Z,102829.50
2022-11-29T23:21:45.222Z,102830.69
2022-11-29T23:24:13.048Z,102829.87
2022-11-29T23:26:43.149Z,102833.91
2022-11-29T23:29:12.248Z,102839.79
2022-11-29T23:31:39.584Z,102838.23
2022-11-29T23:34:07.070Z,102835.09
2022-11-29T23:36:33.919Z,102828.45
2022-11-29T23:39:04.863Z,102827.45
2022-11-29T23:41:32.599Z,102829.50
2022-11-29T23:43:59.290Z,102829.60
2022-11-29T23:46:26.438Z,102828.41
2022-11-29T23:48:53.105Z,102826.65
2022-11-29T23:51:20.226Z,102826.55
2022-11-29T23:53:54.646Z,102828.08
2022-11-29T23:56:21.996Z,102828.40
2022-11-29T23:58:49.117Z,102830.15
